Terminal Aerodrome Forecast
Issued by NWS

Home | Current Version | Previous Version | Text Only | Print | Product List | Glossary On
Versions: 1 2 3 4 5 6 7 8 9 10 11 12 13 14 15 16 17
000
FTUS41 KAKQ 291700
TAFPHF
TAF
KPHF 291721Z 2918/3018 22005KT P6SM BKN250
     FM292100 20010KT P6SM SCT080 OVC150
     FM300800 24011KT P6SM BKN080
     FM301400 32015G25KT P6SM BKN060=

USA.gov is the U.S. government's official web portal to all federal, state and local government web resources and services.